sensor_id;sensor_type;location;lat;lon;timestamp;temperature;humidity
5134;DHT22;2585;48.696;10.066;2023-09-07T00:02:13;11.40;83.00
5134;DHT22;2585;48.696;10.066;2023-09-07T00:04:40;11.40;83.10
5134;DHT22;2585;48.696;10.066;2023-09-07T00:07:07;11.40;83.40
5134;DHT22;2585;48.696;10.066;2023-09-07T00:09:33;11.40;83.60
5134;DHT22;2585;48.696;10.066;2023-09-07T00:12:00;11.40;83.60
5134;DHT22;2585;48.696;10.066;2023-09-07T00:14:27;11.40;83.70
5134;DHT22;2585;48.696;10.066;2023-09-07T00:16:54;11.40;83.80
5134;DHT22;2585;48.696;10.066;2023-09-07T00:19:21;11.30;83.80
5134;DHT22;2585;48.696;10.066;2023-09-07T00:21:48;11.30;83.90
5134;DHT22;2585;48.696;10.066;2023-09-07T00:24:15;11.30;83.90
5134;DHT22;2585;48.696;10.066;2023-09-07T00:26:42;11.20;84.10
5134;DHT22;2585;48.696;10.066;2023-09-07T00:29:09;11.20;84.30
5134;DHT22;2585;48.696;10.066;2023-09-07T00:31:36;11.20;84.50
5134;DHT22;2585;48.696;10.066;2023-09-07T00:34:03;11.10;84.50
5134;DHT22;2585;48.696;10.066;2023-09-07T00:36:30;11.10;84.70
5134;DHT22;2585;48.696;10.066;2023-09-07T00:38:57;11.10;85.00
5134;DHT22;2585;48.696;10.066;2023-09-07T00:41:23;11.10;85.30
5134;DHT22;2585;48.696;10.066;2023-09-07T00:43:50;11.10;85.30
5134;DHT22;2585;48.696;10.066;2023-09-07T00:46:17;11.10;85.50
5134;DHT22;2585;48.696;10.066;2023-09-07T00:48:44;11.10;85.60
5134;DHT22;2585;48.696;10.066;2023-09-07T00:51:11;11.10;85.70
5134;DHT22;2585;48.696;10.066;2023-09-07T00:53:38;11.00;85.70
5134;DHT22;2585;48.696;10.066;2023-09-07T00:56:05;11.00;85.90
5134;DHT22;2585;48.696;10.066;2023-09-07T00:58:33;11.00;86.10
5134;DHT22;2585;48.696;10.066;2023-09-07T01:01:00;11.00;86.20
5134;DHT22;2585;48.696;10.066;2023-09-07T01:03:27;10.90;86.20
5134;DHT22;2585;48.696;10.066;2023-09-07T01:08:32;10.90;86.30
5134;DHT22;2585;48.696;10.066;2023-09-07T01:11:01;10.90;86.30
5134;DHT22;2585;48.696;10.066;2023-09-07T01:13:38;10.90;86.30
5134;DHT22;2585;48.696;10.066;2023-09-07T01:16:05;10.80;86.20
5134;DHT22;2585;48.696;10.066;2023-09-07T01:18:33;10.80;86.30
5134;DHT22;2585;48.696;10.066;2023-09-07T01:21:01;10.80;86.30
5134;DHT22;2585;48.696;10.066;2023-09-07T01:23:30;10.70;86.30
5134;DHT22;2585;48.696;10.066;2023-09-07T01:25:57;10.70;86.60
5134;DHT22;2585;48.696;10.066;2023-09-07T01:28:24;10.70;86.80
5134;DHT22;2585;48.696;10.066;2023-09-07T01:30:51;10.70;86.80
5134;DHT22;2585;48.696;10.066;2023-09-07T01:33:19;10.70;86.90
5134;DHT22;2585;48.696;10.066;2023-09-07T01:35:46;10.60;86.80
5134;DHT22;2585;48.696;10.066;2023-09-07T01:38:13;10.60;86.80
5134;DHT22;2585;48.696;10.066;2023-09-07T01:40:40;10.60;86.90
5134;DHT22;2585;48.696;10.066;2023-09-07T01:43:07;10.60;87.00
5134;DHT22;2585;48.696;10.066;2023-09-07T01:45:34;10.50;86.90
5134;DHT22;2585;48.696;10.066;2023-09-07T01:48:01;10.50;87.20
5134;DHT22;2585;48.696;10.066;2023-09-07T01:50:27;10.50;87.30
5134;DHT22;2585;48.696;10.066;2023-09-07T01:52:54;10.50;87.50
5134;DHT22;2585;48.696;10.066;2023-09-07T01:55:21;10.50;87.50
5134;DHT22;2585;48.696;10.066;2023-09-07T01:57:48;10.50;87.40
5134;DHT22;2585;48.696;10.066;2023-09-07T02:00:15;10.40;87.50
5134;DHT22;2585;48.696;10.066;2023-09-07T02:02:42;10.40;87.70
5134;DHT22;2585;48.696;10.066;2023-09-07T02:05:09;10.40;87.70
5134;DHT22;2585;48.696;10.066;2023-09-07T02:07:36;10.40;87.90
5134;DHT22;2585;48.696;10.066;2023-09-07T02:10:03;10.40;88.00
5134;DHT22;2585;48.696;10.066;2023-09-07T02:12:30;10.40;88.10
5134;DHT22;2585;48.696;10.066;2023-09-07T02:15:03;10.40;88.20
5134;DHT22;2585;48.696;10.066;2023-09-07T02:17:30;10.30;88.30
5134;DHT22;2585;48.696;10.066;2023-09-07T02:19:59;10.30;88.40
5134;DHT22;2585;48.696;10.066;2023-09-07T02:22:25;10.30;88.60
5134;DHT22;2585;48.696;10.066;2023-09-07T02:24:52;10.30;88.60
5134;DHT22;2585;48.696;10.066;2023-09-07T02:27:19;10.30;88.60
5134;DHT22;2585;48.696;10.066;2023-09-07T02:29:46;10.30;88.70
5134;DHT22;2585;48.696;10.066;2023-09-07T02:32:13;10.30;88.80
5134;DHT22;2585;48.696;10.066;2023-09-07T02:34:40;10.30;88.80
5134;DHT22;2585;48.696;10.066;2023-09-07T02:37:07;10.30;88.90
5134;DHT22;2585;48.696;10.066;2023-09-07T02:39:34;10.20;88.80
5134;DHT22;2585;48.696;10.066;2023-09-07T02:42:00;10.20;88.90
5134;DHT22;2585;48.696;10.066;2023-09-07T02:44:27;10.30;89.10
5134;DHT22;2585;48.696;10.066;2023-09-07T02:46:55;10.20;89.00
5134;DHT22;2585;48.696;10.066;2023-09-07T02:49:22;10.20;89.00
5134;DHT22;2585;48.696;10.066;2023-09-07T02:51:49;10.10;88.90
5134;DHT22;2585;48.696;10.066;2023-09-07T02:54:15;10.10;89.10
5134;DHT22;2585;48.696;10.066;2023-09-07T02:56:42;10.10;89.30
5134;DHT22;2585;48.696;10.066;2023-09-07T02:59:09;10.10;89.60
5134;DHT22;2585;48.696;10.066;2023-09-07T03:01:38;10.10;89.60
5134;DHT22;2585;48.696;10.066;2023-09-07T03:04:06;10.10;89.70
5134;DHT22;2585;48.696;10.066;2023-09-07T03:06:34;10.10;89.80
5134;DHT22;2585;48.696;10.066;2023-09-07T03:09:00;10.00;89.70
5134;DHT22;2585;48.696;10.066;2023-09-07T03:11:27;10.00;89.80
5134;DHT22;2585;48.696;10.066;2023-09-07T03:14:00;10.00;89.80
5134;DHT22;2585;48.696;10.066;2023-09-07T03:16:27;10.00;89.90
5134;DHT22;2585;48.696;10.066;2023-09-07T03:18:54;9.90;90.20
5134;DHT22;2585;48.696;10.066;2023-09-07T03:21:20;9.90;90.20
5134;DHT22;2585;48.696;10.066;2023-09-07T03:23:52;9.90;90.20
5134;DHT22;2585;48.696;10.066;2023-09-07T03:26:19;9.90;90.20
5134;DHT22;2585;48.696;10.066;2023-09-07T03:28:46;9.90;90.30
5134;DHT22;2585;48.696;10.066;2023-09-07T03:31:13;9.90;90.30
5134;DHT22;2585;48.696;10.066;2023-09-07T03:33:40;9.90;90.30
5134;DHT22;2585;48.696;10.066;2023-09-07T03:36:07;9.90;90.30
5134;DHT22;2585;48.696;10.066;2023-09-07T03:38:36;9.80;90.20
5134;DHT22;2585;48.696;10.066;2023-09-07T03:41:02;9.80;90.20
5134;DHT22;2585;48.696;10.066;2023-09-07T03:43:29;9.80;90.30
5134;DHT22;2585;48.696;10.066;2023-09-07T03:45:57;9.70;90.30
5134;DHT22;2585;48.696;10.066;2023-09-07T03:48:24;9.70;90.30
5134;DHT22;2585;48.696;10.066;2023-09-07T03:50:51;9.70;90.20
5134;DHT22;2585;48.696;10.066;2023-09-07T03:53:18;9.70;90.20
5134;DHT22;2585;48.696;10.066;2023-09-07T03:55:45;9.70;90.20
5134;DHT22;2585;48.696;10.066;2023-09-07T03:58:12;9.70;90.20
5134;DHT22;2585;48.696;10.066;2023-09-07T04:00:39;9.70;90.20
5134;DHT22;2585;48.696;10.066;2023-09-07T04:03:09;9.60;90.20
5134;DHT22;2585;48.696;10.066;2023-09-07T04:05:37;9.60;90.20
5134;DHT22;2585;48.696;10.066;2023-09-07T04:08:05;9.60;90.20
5134;DHT22;2585;48.696;10.066;2023-09-07T04:10:32;9.50;90.20
5134;DHT22;2585;48.696;10.066;2023-09-07T04:12:59;9.60;90.30
5134;DHT22;2585;48.696;10.066;2023-09-07T04:15:26;9.60;90.30
5134;DHT22;2585;48.696;10.066;2023-09-07T04:17:53;9.50;90.30
5134;DHT22;2585;48.696;10.066;2023-09-07T04:20:21;9.40;90.20
5134;DHT22;2585;48.696;10.066;2023-09-07T04:22:48;9.50;90.30
5134;DHT22;2585;48.696;10.066;2023-09-07T04:25:15;9.50;90.40
5134;DHT22;2585;48.696;10.066;2023-09-07T04:27:42;9.50;90.40
5134;DHT22;2585;48.696;10.066;2023-09-07T04:30:09;9.40;90.40
5134;DHT22;2585;48.696;10.066;2023-09-07T04:32:36;9.40;90.40
5134;DHT22;2585;48.696;10.066;2023-09-07T04:35:04;9.40;90.50
5134;DHT22;2585;48.696;10.066;2023-09-07T04:37:31;9.40;90.50
5134;DHT22;2585;48.696;10.066;2023-09-07T04:39:58;9.40;90.50
5134;DHT22;2585;48.696;10.066;2023-09-07T04:42:24;9.40;90.50
5134;DHT22;2585;48.696;10.066;2023-09-07T04:44:51;9.40;90.50
5134;DHT22;2585;48.696;10.066;2023-09-07T04:47:18;9.40;90.50
5134;DHT22;2585;48.696;10.066;2023-09-07T04:49:51;9.30;90.50
5134;DHT22;2585;48.696;10.066;2023-09-07T04:52:18;9.40;90.60
5134;DHT22;2585;48.696;10.066;2023-09-07T04:54:45;9.30;90.50
5134;DHT22;2585;48.696;10.066;2023-09-07T04:57:13;9.40;90.60
5134;DHT22;2585;48.696;10.066;2023-09-07T04:59:40;9.40;90.70
5134;DHT22;2585;48.696;10.066;2023-09-07T05:02:07;9.40;90.70
5134;DHT22;2585;48.696;10.066;2023-09-07T05:04:34;9.40;90.70
5134;DHT22;2585;48.696;10.066;2023-09-07T05:07:01;9.40;90.80
5134;DHT22;2585;48.696;10.066;2023-09-07T05:09:28;9.40;90.80
5134;DHT22;2585;48.696;10.066;2023-09-07T05:11:56;9.40;90.80
5134;DHT22;2585;48.696;10.066;2023-09-07T05:14:23;9.40;90.80
5134;DHT22;2585;48.696;10.066;2023-09-07T05:16:51;9.40;90.90
5134;DHT22;2585;48.696;10.066;2023-09-07T05:19:18;9.50;90.90
5134;DHT22;2585;48.696;10.066;2023-09-07T05:21:45;9.50;91.00
5134;DHT22;2585;48.696;10.066;2023-09-07T05:24:13;9.60;91.00
5134;DHT22;2585;48.696;10.066;2023-09-07T05:26:44;9.60;91.10
5134;DHT22;2585;48.696;10.066;2023-09-07T05:29:11;9.70;91.20
5134;DHT22;2585;48.696;10.066;2023-09-07T05:31:38;9.70;91.20
5134;DHT22;2585;48.696;10.066;2023-09-07T05:34:05;9.70;91.20
5134;DHT22;2585;48.696;10.066;2023-09-07T05:36:32;9.80;91.30
5134;DHT22;2585;48.696;10.066;2023-09-07T05:38:59;9.90;91.40
5134;DHT22;2585;48.696;10.066;2023-09-07T05:41:28;9.90;91.40
5134;DHT22;2585;48.696;10.066;2023-09-07T05:43:55;10.00;91.20
5134;DHT22;2585;48.696;10.066;2023-09-07T05:46:22;10.00;91.20
5134;DHT22;2585;48.696;10.066;2023-09-07T05:56:11;10.00;91.30
5134;DHT22;2585;48.696;10.066;2023-09-07T06:01:05;10.20;91.40
5134;DHT22;2585;48.696;10.066;2023-09-07T06:03:33;10.40;91.50
5134;DHT22;2585;48.696;10.066;2023-09-07T06:06:02;10.40;91.60
5134;DHT22;2585;48.696;10.066;2023-09-07T06:08:29;10.50;91.60
5134;DHT22;2585;48.696;10.066;2023-09-07T06:10:56;10.60;91.70
5134;DHT22;2585;48.696;10.066;2023-09-07T06:13:23;10.80;91.80
5134;DHT22;2585;48.696;10.066;2023-09-07T06:15:50;10.90;91.80
5134;DHT22;2585;48.696;10.066;2023-09-07T06:18:17;11.00;91.90
5134;DHT22;2585;48.696;10.066;2023-09-07T06:20:44;11.10;91.90
5134;DHT22;2585;48.696;10.066;2023-09-07T06:23:11;11.20;91.90
5134;DHT22;2585;48.696;10.066;2023-09-07T06:25:37;11.40;92.00
5134;DHT22;2585;48.696;10.066;2023-09-07T06:28:05;11.60;92.10
5134;DHT22;2585;48.696;10.066;2023-09-07T06:30:32;11.80;92.20
5134;DHT22;2585;48.696;10.066;2023-09-07T06:32:59;12.00;92.30
5134;DHT22;2585;48.696;10.066;2023-09-07T06:35:26;12.40;92.40
5134;DHT22;2585;48.696;10.066;2023-09-07T06:37:53;12.50;92.40
5134;DHT22;2585;48.696;10.066;2023-09-07T06:40:20;12.80;92.50
5134;DHT22;2585;48.696;10.066;2023-09-07T06:42:47;13.10;92.60
5134;DHT22;2585;48.696;10.066;2023-09-07T06:45:14;13.40;92.60
5134;DHT22;2585;48.696;10.066;2023-09-07T06:47:40;13.70;92.60
5134;DHT22;2585;48.696;10.066;2023-09-07T06:50:07;14.10;92.70
5134;DHT22;2585;48.696;10.066;2023-09-07T06:52:34;14.50;92.60
5134;DHT22;2585;48.696;10.066;2023-09-07T06:55:01;14.80;92.60
5134;DHT22;2585;48.696;10.066;2023-09-07T06:57:28;15.20;92.50
5134;DHT22;2585;48.696;10.066;2023-09-07T06:59:55;15.40;92.50
5134;DHT22;2585;48.696;10.066;2023-09-07T07:02:22;15.80;92.40
5134;DHT22;2585;48.696;10.066;2023-09-07T07:04:49;16.10;92.20
5134;DHT22;2585;48.696;10.066;2023-09-07T07:07:17;16.40;92.00
5134;DHT22;2585;48.696;10.066;2023-09-07T07:09:44;16.80;91.50
5134;DHT22;2585;48.696;10.066;2023-09-07T07:12:10;17.00;91.40
5134;DHT22;2585;48.696;10.066;2023-09-07T07:14:39;17.30;90.50
5134;DHT22;2585;48.696;10.066;2023-09-07T07:17:06;17.70;85.60
5134;DHT22;2585;48.696;10.066;2023-09-07T07:19:33;18.00;80.30
5134;DHT22;2585;48.696;10.066;2023-09-07T07:22:00;18.30;68.70
5134;DHT22;2585;48.696;10.066;2023-09-07T07:24:26;18.60;11.40
5134;DHT22;2585;48.696;10.066;2023-09-07T07:26:54;18.90;1.00
5134;DHT22;2585;48.696;10.066;2023-09-07T07:29:21;19.10;91.90
5134;DHT22;2585;48.696;10.066;2023-09-07T07:31:48;19.30;1.00
5134;DHT22;2585;48.696;10.066;2023-09-07T07:34:14;19.30;1.00
5134;DHT22;2585;48.696;10.066;2023-09-07T07:36:42;19.50;20.70
5134;DHT22;2585;48.696;10.066;2023-09-07T07:39:09;19.80;92.60
5134;DHT22;2585;48.696;10.066;2023-09-07T07:41:36;19.90;89.90
5134;DHT22;2585;48.696;10.066;2023-09-07T07:44:06;20.10;92.50
5134;DHT22;2585;48.696;10.066;2023-09-07T07:46:33;20.00;1.00
5134;DHT22;2585;48.696;10.066;2023-09-07T07:49:00;20.20;91.30
5134;DHT22;2585;48.696;10.066;2023-09-07T07:51:27;20.10;32.20
5134;DHT22;2585;48.696;10.066;2023-09-07T07:53:54;20.20;70.30
5134;DHT22;2585;48.696;10.066;2023-09-07T07:56:23;20.20;31.00
5134;DHT22;2585;48.696;10.066;2023-09-07T07:58:50;20.40;1.00
5134;DHT22;2585;48.696;10.066;2023-09-07T08:01:18;20.20;85.30
5134;DHT22;2585;48.696;10.066;2023-09-07T08:03:47;20.30;89.30
5134;DHT22;2585;48.696;10.066;2023-09-07T08:06:14;20.40;70.00
5134;DHT22;2585;48.696;10.066;2023-09-07T08:08:41;20.30;1.00
5134;DHT22;2585;48.696;10.066;2023-09-07T08:11:08;20.50;1.00
5134;DHT22;2585;48.696;10.066;2023-09-07T08:13:36;20.50;1.00
5134;DHT22;2585;48.696;10.066;2023-09-07T08:16:04;20.60;90.60
5134;DHT22;2585;48.696;10.066;2023-09-07T08:18:33;20.80;87.00
5134;DHT22;2585;48.696;10.066;2023-09-07T08:21:02;20.90;29.90
5134;DHT22;2585;48.696;10.066;2023-09-07T08:23:29;20.90;1.00
5134;DHT22;2585;48.696;10.066;2023-09-07T08:25:56;21.10;1.00
5134;DHT22;2585;48.696;10.066;2023-09-07T08:28:23;21.20;1.00
5134;DHT22;2585;48.696;10.066;2023-09-07T08:30:52;21.40;93.30
5134;DHT22;2585;48.696;10.066;2023-09-07T08:33:21;21.50;79.40
5134;DHT22;2585;48.696;10.066;2023-09-07T08:35:56;21.70;70.00
5134;DHT22;2585;48.696;10.066;2023-09-07T08:38:23;21.80;1.00
5134;DHT22;2585;48.696;10.066;2023-09-07T08:40:55;21.90;1.00
5134;DHT22;2585;48.696;10.066;2023-09-07T08:43:23;22.00;1.00
5134;DHT22;2585;48.696;10.066;2023-09-07T08:46:09;22.10;1.00
5134;DHT22;2585;48.696;10.066;2023-09-07T08:48:42;22.50;90.60
5134;DHT22;2585;48.696;10.066;2023-09-07T08:51:12;22.40;67.60
5134;DHT22;2585;48.696;10.066;2023-09-07T08:53:40;22.60;61.60
5134;DHT22;2585;48.696;10.066;2023-09-07T08:56:07;22.70;9.10
5134;DHT22;2585;48.696;10.066;2023-09-07T08:58:38;23.10;8.30
5134;DHT22;2585;48.696;10.066;2023-09-07T09:01:06;23.50;1.00
5134;DHT22;2585;48.696;10.066;2023-09-07T09:03:36;23.70;1.00
5134;DHT22;2585;48.696;10.066;2023-09-07T09:06:04;24.20;1.00
5134;DHT22;2585;48.696;10.066;2023-09-07T09:08:45;24.70;1.00
5134;DHT22;2585;48.696;10.066;2023-09-07T09:11:14;24.30;75.80
5134;DHT22;2585;48.696;10.066;2023-09-07T09:13:42;24.40;71.00
5134;DHT22;2585;48.696;10.066;2023-09-07T09:16:10;24.10;51.30
5134;DHT22;2585;48.696;10.066;2023-09-07T09:18:37;24.50;61.90
5134;DHT22;2585;48.696;10.066;2023-09-07T09:21:04;24.80;23.10
5134;DHT22;2585;48.696;10.066;2023-09-07T09:23:32;25.10;1.00
5134;DHT22;2585;48.696;10.066;2023-09-07T09:26:03;24.90;1.00
5134;DHT22;2585;48.696;10.066;2023-09-07T09:28:32;25.50;1.00
5134;DHT22;2585;48.696;10.066;2023-09-07T09:31:01;25.60;1.00
5134;DHT22;2585;48.696;10.066;2023-09-07T09:33:32;26.00;1.00
5134;DHT22;2585;48.696;10.066;2023-09-07T09:35:59;25.90;1.00
5134;DHT22;2585;48.696;10.066;2023-09-07T09:38:27;25.80;1.00
5134;DHT22;2585;48.696;10.066;2023-09-07T09:40:54;26.50;1.00
5134;DHT22;2585;48.696;10.066;2023-09-07T09:43:22;26.70;94.50
5134;DHT22;2585;48.696;10.066;2023-09-07T09:45:49;26.90;92.20
5134;DHT22;2585;48.696;10.066;2023-09-07T09:48:19;26.70;87.00
5134;DHT22;2585;48.696;10.066;2023-09-07T09:50:50;26.50;83.40
5134;DHT22;2585;48.696;10.066;2023-09-07T09:53:18;26.30;81.40
5134;DHT22;2585;48.696;10.066;2023-09-07T09:55:50;26.20;77.20
5134;DHT22;2585;48.696;10.066;2023-09-07T09:58:20;26.30;76.00
5134;DHT22;2585;48.696;10.066;2023-09-07T10:00:54;26.10;73.30
5134;DHT22;2585;48.696;10.066;2023-09-07T10:03:29;26.30;72.90
5134;DHT22;2585;48.696;10.066;2023-09-07T10:06:18;26.70;70.30
5134;DHT22;2585;48.696;10.066;2023-09-07T10:09:06;26.50;64.00
5134;DHT22;2585;48.696;10.066;2023-09-07T10:11:35;26.60;64.10
5134;DHT22;2585;48.696;10.066;2023-09-07T10:14:07;27.20;61.60
5134;DHT22;2585;48.696;10.066;2023-09-07T10:19:22;27.70;55.30
5134;DHT22;2585;48.696;10.066;2023-09-07T10:21:52;28.30;41.20
5134;DHT22;2585;48.696;10.066;2023-09-07T10:27:00;28.40;13.50
5134;DHT22;2585;48.696;10.066;2023-09-07T10:29:28;28.10;6.80
5134;DHT22;2585;48.696;10.066;2023-09-07T10:31:55;28.20;6.40
5134;DHT22;2585;48.696;10.066;2023-09-07T10:34:37;28.10;1.00
5134;DHT22;2585;48.696;10.066;2023-09-07T10:37:05;27.80;1.00
5134;DHT22;2585;48.696;10.066;2023-09-07T10:39:36;27.80;1.00
5134;DHT22;2585;48.696;10.066;2023-09-07T10:42:05;27.50;1.00
5134;DHT22;2585;48.696;10.066;2023-09-07T10:44:32;28.10;1.00
5134;DHT22;2585;48.696;10.066;2023-09-07T10:47:00;28.40;1.00
5134;DHT22;2585;48.696;10.066;2023-09-07T10:49:27;28.90;1.00
5134;DHT22;2585;48.696;10.066;2023-09-07T10:51:53;29.30;1.00
5134;DHT22;2585;48.696;10.066;2023-09-07T10:54:24;29.60;1.00
5134;DHT22;2585;48.696;10.066;2023-09-07T10:56:52;28.80;1.00
5134;DHT22;2585;48.696;10.066;2023-09-07T10:59:19;28.70;1.00
5134;DHT22;2585;48.696;10.066;2023-09-07T11:01:46;29.20;1.00
5134;DHT22;2585;48.696;10.066;2023-09-07T11:04:15;29.30;1.00
5134;DHT22;2585;48.696;10.066;2023-09-07T11:06:44;29.60;1.00
5134;DHT22;2585;48.696;10.066;2023-09-07T11:09:11;29.60;1.00
5134;DHT22;2585;48.696;10.066;2023-09-07T11:11:39;29.90;1.00
5134;DHT22;2585;48.696;10.066;2023-09-07T11:14:06;30.30;1.00
5134;DHT22;2585;48.696;10.066;2023-09-07T11:16:33;29.90;1.00
5134;DHT22;2585;48.696;10.066;2023-09-07T11:19:05;30.20;1.00
5134;DHT22;2585;48.696;10.066;2023-09-07T11:21:34;30.10;1.00
5134;DHT22;2585;48.696;10.066;2023-09-07T11:24:01;29.90;96.20
5134;DHT22;2585;48.696;10.066;2023-09-07T11:26:51;29.60;95.70
5134;DHT22;2585;48.696;10.066;2023-09-07T11:29:18;30.00;95.70
5134;DHT22;2585;48.696;10.066;2023-09-07T11:31:46;29.90;94.90
5134;DHT22;2585;48.696;10.066;2023-09-07T11:34:14;29.70;94.50
5134;DHT22;2585;48.696;10.066;2023-09-07T11:36:42;29.60;94.10
5134;DHT22;2585;48.696;10.066;2023-09-07T11:39:10;30.10;94.00
5134;DHT22;2585;48.696;10.066;2023-09-07T11:41:43;30.20;93.70
5134;DHT22;2585;48.696;10.066;2023-09-07T11:44:11;29.50;92.80
5134;DHT22;2585;48.696;10.066;2023-09-07T11:46:39;29.90;93.50
5134;DHT22;2585;48.696;10.066;2023-09-07T11:49:06;30.60;94.10
5134;DHT22;2585;48.696;10.066;2023-09-07T11:51:36;30.60;93.60
5134;DHT22;2585;48.696;10.066;2023-09-07T11:54:03;31.30;93.50
5134;DHT22;2585;48.696;10.066;2023-09-07T11:56:31;31.70;93.40
5134;DHT22;2585;48.696;10.066;2023-09-07T11:58:58;31.70;91.80
5134;DHT22;2585;48.696;10.066;2023-09-07T12:01:25;31.70;91.30
5134;DHT22;2585;48.696;10.066;2023-09-07T12:03:53;31.80;91.50
5134;DHT22;2585;48.696;10.066;2023-09-07T12:06:20;32.30;91.70
5134;DHT22;2585;48.696;10.066;2023-09-07T12:09:06;32.40;90.70
5134;DHT22;2585;48.696;10.066;2023-09-07T12:11:33;32.20;89.30
5134;DHT22;2585;48.696;10.066;2023-09-07T12:14:00;31.30;86.20
5134;DHT22;2585;48.696;10.066;2023-09-07T12:16:28;31.20;86.40
5134;DHT22;2585;48.696;10.066;2023-09-07T12:18:55;31.40;87.20
5134;DHT22;2585;48.696;10.066;2023-09-07T12:21:22;31.40;86.80
5134;DHT22;2585;48.696;10.066;2023-09-07T12:23:49;31.70;86.30
5134;DHT22;2585;48.696;10.066;2023-09-07T12:26:16;31.90;86.80
5134;DHT22;2585;48.696;10.066;2023-09-07T12:28:48;31.70;84.50
5134;DHT22;2585;48.696;10.066;2023-09-07T12:31:15;32.00;84.60
5134;DHT22;2585;48.696;10.066;2023-09-07T12:33:42;31.90;82.50
5134;DHT22;2585;48.696;10.066;2023-09-07T12:36:10;31.80;82.70
5134;DHT22;2585;48.696;10.066;2023-09-07T12:38:38;31.70;81.90
5134;DHT22;2585;48.696;10.066;2023-09-07T12:41:05;31.80;81.80
5134;DHT22;2585;48.696;10.066;2023-09-07T12:43:32;31.60;80.90
5134;DHT22;2585;48.696;10.066;2023-09-07T12:45:59;31.30;79.70
5134;DHT22;2585;48.696;10.066;2023-09-07T12:48:26;31.20;79.90
5134;DHT22;2585;48.696;10.066;2023-09-07T12:50:54;31.20;80.00
5134;DHT22;2585;48.696;10.066;2023-09-07T12:53:22;30.90;78.60
5134;DHT22;2585;48.696;10.066;2023-09-07T12:55:53;31.60;79.30
5134;DHT22;2585;48.696;10.066;2023-09-07T12:58:20;31.70;79.00
5134;DHT22;2585;48.696;10.066;2023-09-07T13:00:47;32.10;78.30
5134;DHT22;2585;48.696;10.066;2023-09-07T13:03:19;31.80;76.00
5134;DHT22;2585;48.696;10.066;2023-09-07T13:05:46;31.20;74.70
5134;DHT22;2585;48.696;10.066;2023-09-07T13:08:13;31.00;74.40
5134;DHT22;2585;48.696;10.066;2023-09-07T13:10:40;31.30;74.50
5134;DHT22;2585;48.696;10.066;2023-09-07T13:13:07;31.00;75.00
5134;DHT22;2585;48.696;10.066;2023-09-07T13:15:34;30.90;73.20
5134;DHT22;2585;48.696;10.066;2023-09-07T13:18:01;30.80;73.20
5134;DHT22;2585;48.696;10.066;2023-09-07T13:20:28;30.90;73.70
5134;DHT22;2585;48.696;10.066;2023-09-07T13:22:55;31.00;74.30
5134;DHT22;2585;48.696;10.066;2023-09-07T13:25:23;31.40;74.20
5134;DHT22;2585;48.696;10.066;2023-09-07T13:27:50;31.20;73.50
5134;DHT22;2585;48.696;10.066;2023-09-07T13:30:17;31.40;73.50
5134;DHT22;2585;48.696;10.066;2023-09-07T13:32:44;31.00;72.30
5134;DHT22;2585;48.696;10.066;2023-09-07T13:35:14;30.90;72.50
5134;DHT22;2585;48.696;10.066;2023-09-07T13:37:41;31.00;72.20
5134;DHT22;2585;48.696;10.066;2023-09-07T13:40:08;31.00;72.40
5134;DHT22;2585;48.696;10.066;2023-09-07T13:42:35;30.80;71.10
5134;DHT22;2585;48.696;10.066;2023-09-07T13:45:02;31.00;70.90
5134;DHT22;2585;48.696;10.066;2023-09-07T13:47:29;31.10;69.10
5134;DHT22;2585;48.696;10.066;2023-09-07T13:49:56;30.80;68.80
5134;DHT22;2585;48.696;10.066;2023-09-07T13:52:22;30.80;68.70
5134;DHT22;2585;48.696;10.066;2023-09-07T13:54:49;30.80;68.60
5134;DHT22;2585;48.696;10.066;2023-09-07T13:57:16;30.70;67.90
5134;DHT22;2585;48.696;10.066;2023-09-07T13:59:43;30.80;69.60
5134;DHT22;2585;48.696;10.066;2023-09-07T14:02:10;30.50;67.50
5134;DHT22;2585;48.696;10.066;2023-09-07T14:04:36;30.40;67.70
5134;DHT22;2585;48.696;10.066;2023-09-07T14:07:03;30.60;67.50
5134;DHT22;2585;48.696;10.066;2023-09-07T14:09:30;30.40;66.10
5134;DHT22;2585;48.696;10.066;2023-09-07T14:11:57;30.20;65.80
5134;DHT22;2585;48.696;10.066;2023-09-07T14:14:24;30.60;66.80
5134;DHT22;2585;48.696;10.066;2023-09-07T14:16:51;30.70;65.60
5134;DHT22;2585;48.696;10.066;2023-09-07T14:19:23;30.50;64.90
5134;DHT22;2585;48.696;10.066;2023-09-07T14:21:53;30.70;65.40
5134;DHT22;2585;48.696;10.066;2023-09-07T14:24:20;30.70;65.10
5134;DHT22;2585;48.696;10.066;2023-09-07T14:26:46;30.70;65.50
5134;DHT22;2585;48.696;10.066;2023-09-07T14:29:13;30.60;65.50
5134;DHT22;2585;48.696;10.066;2023-09-07T14:31:40;30.40;65.20
5134;DHT22;2585;48.696;10.066;2023-09-07T14:34:09;30.10;65.00
5134;DHT22;2585;48.696;10.066;2023-09-07T14:36:37;29.60;64.40
5134;DHT22;2585;48.696;10.066;2023-09-07T14:39:07;29.30;64.50
5134;DHT22;2585;48.696;10.066;2023-09-07T14:41:35;29.20;64.70
5134;DHT22;2585;48.696;10.066;2023-09-07T14:44:02;28.70;64.40
5134;DHT22;2585;48.696;10.066;2023-09-07T14:46:29;28.40;65.10
5134;DHT22;2585;48.696;10.066;2023-09-07T14:48:57;28.40;65.20
5134;DHT22;2585;48.696;10.066;2023-09-07T14:51:24;28.20;65.40
5134;DHT22;2585;48.696;10.066;2023-09-07T14:53:51;28.00;65.40
5134;DHT22;2585;48.696;10.066;2023-09-07T14:56:18;28.00;65.70
5134;DHT22;2585;48.696;10.066;2023-09-07T14:58:45;27.80;65.60
5134;DHT22;2585;48.696;10.066;2023-09-07T15:01:12;27.80;66.00
5134;DHT22;2585;48.696;10.066;2023-09-07T15:03:39;27.80;66.60
5134;DHT22;2585;48.696;10.066;2023-09-07T15:06:07;27.60;66.30
5134;DHT22;2585;48.696;10.066;2023-09-07T15:08:38;27.50;66.30
5134;DHT22;2585;48.696;10.066;2023-09-07T15:11:05;27.30;65.60
5134;DHT22;2585;48.696;10.066;2023-09-07T15:13:32;27.20;65.30
5134;DHT22;2585;48.696;10.066;2023-09-07T15:15:59;27.10;65.80
5134;DHT22;2585;48.696;10.066;2023-09-07T15:18:26;27.00;65.80
5134;DHT22;2585;48.696;10.066;2023-09-07T15:20:53;26.90;66.00
5134;DHT22;2585;48.696;10.066;2023-09-07T15:23:20;26.80;65.90
5134;DHT22;2585;48.696;10.066;2023-09-07T15:25:47;26.70;66.40
5134;DHT22;2585;48.696;10.066;2023-09-07T15:28:14;26.60;66.90
5134;DHT22;2585;48.696;10.066;2023-09-07T15:30:44;26.50;66.00
5134;DHT22;2585;48.696;10.066;2023-09-07T15:33:10;26.50;66.30
5134;DHT22;2585;48.696;10.066;2023-09-07T15:35:37;26.40;66.00
5134;DHT22;2585;48.696;10.066;2023-09-07T15:38:04;26.40;65.90
5134;DHT22;2585;48.696;10.066;2023-09-07T15:40:31;26.30;66.20
5134;DHT22;2585;48.696;10.066;2023-09-07T15:42:58;26.10;66.10
5134;DHT22;2585;48.696;10.066;2023-09-07T15:45:25;26.10;66.20
5134;DHT22;2585;48.696;10.066;2023-09-07T15:47:54;25.90;66.10
5134;DHT22;2585;48.696;10.066;2023-09-07T15:50:21;25.80;66.10
5134;DHT22;2585;48.696;10.066;2023-09-07T15:52:48;25.70;66.30
5134;DHT22;2585;48.696;10.066;2023-09-07T15:55:16;25.70;67.00
5134;DHT22;2585;48.696;10.066;2023-09-07T15:57:44;25.60;67.20
5134;DHT22;2585;48.696;10.066;2023-09-07T16:00:14;25.50;67.40
5134;DHT22;2585;48.696;10.066;2023-09-07T16:02:43;25.40;67.40
5134;DHT22;2585;48.696;10.066;2023-09-07T16:05:10;25.40;68.00
5134;DHT22;2585;48.696;10.066;2023-09-07T16:07:38;25.40;68.60
5134;DHT22;2585;48.696;10.066;2023-09-07T16:10:05;25.20;69.80
5134;DHT22;2585;48.696;10.066;2023-09-07T16:12:32;25.20;69.20